KCLL/CLL METAR and TAF weather

Enter ICAO airport designator
Station Type Date Time Source
KCLL METAR 2018/01/19 22:53 UTC NOAA

KCLL 192253Z 15011KT 10SM OVC046 15/10 A3011 RMK AO2 SLP197 T01500100


Station Type Date Time Source
KCLL Decoded METAR 2018/01/19 22:53 UTC NOAA

COLLEGE STN EASTERWOOD FIELD, TX, United States (KCLL) 30-35N 096-22W 96M
Jan 19, 2018 - 05:53 PM EST / 2018.01.19 2253 UTC
Wind: from the SSE (150 degrees) at 13 MPH (11 KT):0
Visibility: 10 mile(s):0
Sky conditions: overcast
Temperature: 59.0 F (15.0 C)
Dew Point: 50.0 F (10.0 C)
Relative Humidity: 72%
Pressure (altimeter): 30.11 in. Hg (1019 hPa)
ob: KCLL 192253Z 15011KT 10SM OVC046 15/10 A3011 RMK AO2 SLP197 T01500100
cycle: 23

Station Type Date Time Source
KCLL TAF 2018/01/19 18:42 UTC NOAA

TAF KCLL 191740Z 1918/2018 12007KT P6SM OVC024
FM200000 15008KT 6SM BR OVC010
FM200400 14007KT 4SM BR OVC007
TEMPO 2006/2009 2SM BR OVC004
FM200900 15005KT 1SM BR OVC003
FM201500 18007KT 5SM BR BKN006 OVC015


Example: see airport list